Time;durP1;ratioP1;P1;durP2;ratioP2;P2;SDS_P1;SDS_P2;PMS_P1;PMS_P2;Temp;Humidity;BMP_temperature;BMP_pressure;BME280_temperature;BME280_humidity;BME280_pressure;Samples;Min_cycle;Max_cycle;Signal;HPM_P1;HPM_P2
2022/06/21 00:01:49;;;;;;;9.33;6.05;;;;;;;11.90;82.10;99757.74;1979140;88;21035;-83
2022/06/21 00:04:51;;;;;;;9.75;5.75;;;;;;;11.87;82.19;99758.94;1961045;88;21038;-84
2022/06/21 00:07:53;;;;;;;6.25;5.53;;;;;;;11.82;82.26;99756.47;1961699;88;21012;-86
2022/06/21 00:10:55;;;;;;;12.85;6.00;;;;;;;11.82;82.31;99767.11;1984222;88;21072;-84
2022/06/21 00:13:57;;;;;;;8.13;5.87;;;;;;;11.80;82.52;99769.14;1981515;88;21056;-85
2022/06/21 00:16:58;;;;;;;7.10;6.40;;;;;;;11.78;82.58;99771.16;1974359;88;21031;-85
2022/06/21 00:19:59;;;;;;;7.25;6.53;;;;;;;11.80;82.98;99775.28;1983161;87;21017;-86
2022/06/21 00:23:00;;;;;;;8.65;6.25;;;;;;;11.82;83.00;99754.63;1976071;88;21061;-85
2022/06/21 00:26:02;;;;;;;10.05;6.53;;;;;;;11.86;82.96;99739.20;1978546;87;21106;-84
2022/06/21 00:29:03;;;;;;;6.83;6.12;;;;;;;11.87;82.85;99747.48;2007173;87;21522;-84
2022/06/21 00:32:05;;;;;;;9.53;6.85;;;;;;;11.83;82.77;99751.50;2010947;87;21039;-84
2022/06/21 00:35:12;;;;;;;10.50;6.17;;;;;;;11.80;82.71;99747.38;2008409;86;21035;-84
2022/06/21 00:38:18;;;;;;;8.00;6.40;;;;;;;11.76;82.72;99748.73;2008096;85;21019;-85
2022/06/21 00:41:41;;;;;;;7.92;6.85;;;;;;;11.75;82.86;99746.27;2007574;88;21060;-85
2022/06/21 00:44:54;;;;;;;10.32;6.08;;;;;;;11.74;82.90;99744.60;2006245;87;21577;-84
2022/06/21 00:48:01;;;;;;;9.23;6.22;;;;;;;11.73;82.96;99741.63;2003081;86;21075;-84
2022/06/21 00:51:22;;;;;;;8.95;6.45;;;;;;;11.71;82.77;99739.14;2005127;87;21530;-84
2022/06/21 00:54:38;;;;;;;7.30;5.70;;;;;;;11.69;82.73;99728.41;2009058;86;21626;-84
2022/06/21 00:57:52;;;;;;;8.75;5.40;;;;;;;11.66;82.69;99731.73;1999174;86;21056;-84
2022/06/21 01:01:21;;;;;;;6.35;5.75;;;;;;;11.63;82.87;99741.41;2005619;87;21043;-84
2022/06/21 01:04:27;;;;;;;7.87;5.55;;;;;;;11.60;82.85;99735.61;2003872;86;21046;-85
2022/06/21 01:07:29;;;;;;;9.65;5.47;;;;;;;11.58;82.95;99740.30;2005921;87;21082;-84
2022/06/21 01:10:31;;;;;;;6.85;5.10;;;;;;;11.53;82.92;99736.03;2007683;87;21054;-85
2022/06/21 01:13:36;;;;;;;7.95;5.78;;;;;;;11.47;82.78;99736.27;2003495;87;21058;-85
2022/06/21 01:16:39;;;;;;;11.83;5.25;;;;;;;11.42;82.73;99728.01;2009076;87;21494;-84
2022/06/21 01:19:48;;;;;;;5.78;4.90;;;;;;;11.37;82.69;99737.84;2007016;86;21051;-84
2022/06/21 01:23:16;;;;;;;7.20;5.87;;;;;;;11.32;82.49;99743.37;2010284;87;21046;-85
2022/06/21 01:26:51;;;;;;;8.45;5.15;;;;;;;11.26;82.49;99736.13;2001725;87;21105;-84
2022/06/21 01:29:53;;;;;;;7.37;5.70;;;;;;;11.05;82.42;99715.08;1999534;87;21585;-85
2022/06/21 01:32:58;;;;;;;6.55;5.58;;;;;;;11.05;82.47;99724.88;1996985;87;21021;-85
2022/06/21 01:36:07;;;;;;;7.65;5.55;;;;;;;11.14;82.33;99752.49;2000005;87;20972;-84
2022/06/21 01:39:19;;;;;;;8.78;5.58;;;;;;;11.11;82.35;99744.06;1994255;87;21492;-85
2022/06/21 01:42:38;;;;;;;6.92;5.67;;;;;;;11.08;82.39;99749.73;1991256;87;21050;-85
2022/06/21 01:45:50;;;;;;;8.73;6.33;;;;;;;11.00;82.41;99754.09;1995098;87;21074;-85
2022/06/21 01:48:55;;;;;;;7.00;6.28;;;;;;;10.96;82.49;99749.34;1998875;87;21096;-85
2022/06/21 01:52:14;;;;;;;8.50;6.10;;;;;;;10.91;82.51;99751.70;1995361;87;21546;-85
2022/06/21 01:55:41;;;;;;;9.08;6.62;;;;;;;10.87;82.61;99751.71;1997703;85;21109;-86
2022/06/21 01:58:49;;;;;;;12.33;6.85;;;;;;;10.85;82.59;99756.39;1991869;87;21046;-85
2022/06/21 02:02:04;;;;;;;11.08;6.47;;;;;;;10.79;82.64;99751.30;1993614;87;21028;-84
2022/06/21 02:05:12;;;;;;;9.15;7.10;;;;;;;10.80;82.70;99758.24;1992056;87;21032;-84
2022/06/21 02:08:18;;;;;;;8.48;7.00;;;;;;;10.79;82.69;99763.75;1990959;87;21006;-85
2022/06/21 02:11:28;;;;;;;8.95;6.78;;;;;;;10.81;82.95;99756.41;1994545;87;21643;-85
2022/06/21 02:14:33;;;;;;;10.08;7.25;;;;;;;10.79;82.88;99758.44;1990412;87;21076;-84
2022/06/21 02:17:41;;;;;;;11.12;7.35;;;;;;;10.77;82.97;99762.58;1969872;87;21329;-86
2022/06/21 02:21:05;;;;;;;10.13;7.10;;;;;;;10.77;83.03;99763.91;1970338;87;21088;-83
2022/06/21 02:24:09;;;;;;;7.62;6.87;;;;;;;10.73;83.33;99762.11;1991035;87;21043;-84
2022/06/21 02:27:15;;;;;;;11.40;8.40;;;;;;;10.70;83.18;99763.80;1997026;87;21530;-85
2022/06/21 02:30:21;;;;;;;10.28;6.97;;;;;;;10.70;83.12;99769.11;2021211;87;21054;-83
2022/06/21 02:33:28;;;;;;;8.03;7.20;;;;;;;10.70;83.05;99765.13;2016430;86;21834;-84
2022/06/21 02:36:35;;;;;;;12.25;7.28;;;;;;;10.68;83.06;99764.97;2014921;87;21016;-83
2022/06/21 02:39:38;;;;;;;11.05;7.37;;;;;;;10.66;83.09;99763.80;2019461;87;21049;-84
2022/06/21 02:42:42;;;;;;;9.13;7.12;;;;;;;10.66;83.00;99771.77;2026049;87;21055;-84
2022/06/21 02:45:51;;;;;;;8.55;6.20;;;;;;;10.65;83.02;99774.11;2018098;87;21448;-82
2022/06/21 02:49:02;;;;;;;9.58;7.08;;;;;;;10.65;83.00;99762.16;2015179;86;21018;-84
2022/06/21 02:52:20;;;;;;;9.83;6.40;;;;;;;10.63;83.02;99764.16;2021939;87;21074;-85
2022/06/21 02:55:44;;;;;;;8.33;6.03;;;;;;;10.63;83.18;99760.69;2018871;87;21001;-83
2022/06/21 02:58:51;;;;;;;7.00;5.83;;;;;;;10.61;83.28;99759.52;2022473;87;21009;-86
2022/06/21 03:01:58;;;;;;;10.90;6.65;;;;;;;10.62;83.35;99762.52;2014982;87;21142;-83
2022/06/21 03:05:04;;;;;;;6.72;5.87;;;;;;;10.64;83.53;99756.52;2021711;87;20984;-84
2022/06/21 03:08:09;;;;;;;9.20;6.30;;;;;;;10.66;83.49;99758.50;2014479;87;21023;-85
2022/06/21 03:11:13;;;;;;;11.78;6.30;;;;;;;10.68;83.57;99760.99;2018964;87;21028;-83
2022/06/21 03:14:22;;;;;;;11.75;7.20;;;;;;;10.72;83.45;99763.61;2010555;86;21051;-83
2022/06/21 03:17:31;;;;;;;12.45;6.80;;;;;;;10.75;83.46;99756.11;2013232;87;21076;-84
2022/06/21 03:20:33;;;;;;;9.63;7.00;;;;;;;10.82;83.34;99759.41;2011333;87;21500;-84
2022/06/21 03:23:36;;;;;;;11.60;7.28;;;;;;;10.83;83.28;99762.38;2013832;87;21122;-84
2022/06/21 03:26:41;;;;;;;8.70;7.10;;;;;;;10.87;83.33;99753.05;2015448;85;21668;-83
2022/06/21 03:29:44;;;;;;;8.40;6.70;;;;;;;10.91;83.19;99764.47;2015155;87;21022;-83
2022/06/21 03:32:46;;;;;;;9.90;6.55;;;;;;;11.02;83.30;99764.55;1998003;86;21013;-83
2022/06/21 03:35:49;;;;;;;10.70;6.22;;;;;;;11.32;83.00;99767.27;2014459;86;21113;-84
2022/06/21 03:39:16;;;;;;;8.65;5.05;;;;;;;11.32;83.00;99767.27;2017040;87;21047;-85
2022/06/21 03:42:22;;;;;;;7.72;4.30;;;;;;;11.62;82.78;99761.51;2016566;86;21089;-84
2022/06/21 03:45:33;;;;;;;4.40;4.00;;;;;;;12.07;82.24;99766.35;2016857;86;21047;-82
2022/06/21 03:48:50;;;;;;;10.28;4.08;;;;;;;12.48;81.81;99753.34;1985810;87;21549;-84
2022/06/21 03:51:55;;;;;;;5.92;3.62;;;;;;;12.85;81.06;99750.66;2019206;86;21049;-83
2022/06/21 03:55:00;;;;;;;4.75;3.50;;;;;;;13.06;80.02;99764.45;2017508;87;21039;-85
2022/06/21 03:58:24;;;;;;;4.58;3.25;;;;;;;13.12;79.25;99763.68;2018164;86;21032;-83
2022/06/21 04:01:52;;;;;;;3.27;2.95;;;;;;;13.17;78.89;99762.61;2016252;86;21665;-84
2022/06/21 04:05:23;;;;;;;5.75;3.37;;;;;;;13.44;78.16;99767.16;2018020;86;21091;-84
2022/06/21 04:08:39;;;;;;;5.43;2.97;;;;;;;13.78;77.99;99776.72;2018213;86;21509;-85
2022/06/21 04:11:45;;;;;;;5.15;3.12;;;;;;;13.90;77.00;99772.48;2015230;86;21585;-86
2022/06/21 04:15:16;;;;;;;12.03;3.77;;;;;;;13.99;77.12;99773.14;2011409;86;21023;-83
2022/06/21 04:18:35;;;;;;;6.62;3.20;;;;;;;14.08;75.85;99775.98;2016069;86;21023;-86
2022/06/21 04:21:45;;;;;;;7.80;2.90;;;;;;;13.89;75.54;99781.51;1995529;86;21131;-83
2022/06/21 04:25:16;;;;;;;6.97;3.25;;;;;;;14.11;75.63;99785.73;2019985;86;21036;-84
2022/06/21 04:28:34;;;;;;;5.78;2.95;;;;;;;14.34;75.48;99792.09;2010422;87;21021;-85
2022/06/21 04:31:44;;;;;;;10.38;3.12;;;;;;;14.49;74.83;99794.60;2005553;85;21599;-86
2022/06/21 04:34:53;;;;;;;4.03;2.95;;;;;;;14.38;74.22;99797.84;1999879;86;21503;-86
2022/06/21 04:38:14;;;;;;;4.78;2.92;;;;;;;14.18;73.36;99796.94;1998322;86;21686;-84
2022/06/21 04:41:29;;;;;;;6.53;2.90;;;;;;;14.18;73.61;99800.95;1993190;86;21039;-84
2022/06/21 04:44:57;;;;;;;8.23;2.87;;;;;;;14.46;73.68;99807.53;2002966;87;21093;-86
2022/06/21 04:48:27;;;;;;;3.45;2.65;;;;;;;14.40;73.58;99804.34;2004803;86;21561;-86
2022/06/21 04:51:51;;;;;;;5.33;3.10;;;;;;;14.32;73.05;99798.65;2004491;86;21001;-83
2022/06/21 04:54:52;;;;;;;5.53;2.65;;;;;;;14.02;73.05;99798.08;2005665;86;21118;-85
2022/06/21 04:57:55;;;;;;;3.17;2.52;;;;;;;14.28;73.63;99803.56;2005741;87;21079;-84
2022/06/21 05:00:58;;;;;;;4.70;2.70;;;;;;;14.44;73.09;99802.90;1998877;86;21088;-82
2022/06/21 05:04:13;;;;;;;5.83;2.60;;;;;;;14.66;72.42;99800.44;2003460;86;20996;-83
2022/06/21 05:07:23;;;;;;;6.72;2.62;;;;;;;14.73;71.88;99806.64;2002430;87;21649;-84
2022/06/21 05:10:32;;;;;;;6.17;2.98;;;;;;;14.56;71.13;99808.03;1992555;86;21591;-85
2022/06/21 05:13:49;;;;;;;3.25;2.20;;;;;;;14.49;71.60;99808.47;1997855;86;21488;-84
2022/06/21 05:16:51;;;;;;;4.42;2.77;;;;;;;14.71;71.89;99801.19;2004734;87;20993;-85
2022/06/21 05:20:00;;;;;;;5.10;2.40;;;;;;;15.09;70.69;99785.45;2008822;86;21089;-86
2022/06/21 05:23:05;;;;;;;4.10;2.35;;;;;;;15.23;70.14;99792.93;2003291;87;21048;-83
2022/06/21 05:26:22;;;;;;;6.97;2.67;;;;;;;15.64;70.28;99775.86;2012983;85;20998;-85
2022/06/21 05:29:41;;;;;;;2.67;1.90;;;;;;;15.93;68.90;99789.30;1994753;87;21106;-85
2022/06/21 05:32:59;;;;;;;3.75;1.90;;;;;;;16.40;69.44;99788.64;1995141;86;21068;-85
2022/06/21 05:36:03;;;;;;;2.87;2.17;;;;;;;16.75;68.07;99793.11;1994062;87;21073;-85
2022/06/21 05:39:23;;;;;;;3.65;2.00;;;;;;;16.97;66.82;99784.74;1995234;88;21080;-85
2022/06/21 05:42:27;;;;;;;4.12;2.10;;;;;;;16.90;66.01;99790.16;2004295;88;21028;-84
2022/06/21 05:45:32;;;;;;;4.30;2.10;;;;;;;16.97;65.69;99789.58;1999040;86;21056;-86
2022/06/21 05:48:40;;;;;;;5.00;2.30;;;;;;;17.13;65.66;99794.13;1994861;88;21372;-84
2022/06/21 05:51:41;;;;;;;4.33;2.20;;;;;;;17.14;64.81;99795.77;1988568;88;21058;-87
2022/06/21 05:54:47;;;;;;;2.35;1.98;;;;;;;17.29;65.38;99802.14;1993711;87;21045;-83
2022/06/21 05:58:02;;;;;;;4.97;2.17;;;;;;;17.63;63.70;99792.80;1995879;88;21048;-86
2022/06/21 06:01:30;;;;;;;3.87;1.90;;;;;;;17.32;63.76;99786.45;1992193;86;21597;-83
2022/06/21 06:04:49;;;;;;;2.95;1.98;;;;;;;17.10;63.20;99805.28;2014800;85;21635;-83
2022/06/21 06:07:55;;;;;;;2.05;1.85;;;;;;;16.72;63.72;99810.92;2002422;87;21059;-85
2022/06/21 06:11:01;;;;;;;3.35;2.00;;;;;;;16.50;63.64;99814.95;2000626;86;21054;-85
2022/06/21 06:14:01;;;;;;;4.33;1.90;;;;;;;16.08;64.27;99811.30;1999851;87;21045;-84
2022/06/21 06:17:08;;;;;;;6.30;2.05;;;;;;;15.80;63.84;99814.77;1999582;87;21079;-87
2022/06/21 06:20:42;;;;;;;2.83;1.90;;;;;;;15.77;64.99;99807.97;1994670;86;21535;-85
2022/06/21 06:23:51;;;;;;;3.58;1.70;;;;;;;15.97;65.01;99805.78;1998251;87;20990;-84
2022/06/21 06:26:57;;;;;;;2.47;1.60;;;;;;;16.00;64.44;99813.39;1994532;87;21028;-83
2022/06/21 06:30:04;;;;;;;1.92;1.60;;;;;;;16.07;65.10;99818.19;1993064;87;21015;-85
2022/06/21 06:33:20;;;;;;;4.30;2.15;;;;;;;16.10;64.76;99822.59;1993704;87;21446;-84
2022/06/21 06:36:32;;;;;;;3.58;1.95;;;;;;;16.17;64.14;99817.77;1993011;87;21003;-86
2022/06/21 06:39:36;;;;;;;2.62;1.72;;;;;;;16.29;64.20;99811.53;1990119;87;21064;-85
2022/06/21 06:42:41;;;;;;;4.65;2.22;;;;;;;16.94;64.82;99818.16;1996468;87;21155;-85
2022/06/21 06:45:43;;;;;;;4.65;1.77;;;;;;;17.08;63.65;99820.76;1994856;87;21002;-86
2022/06/21 06:48:46;;;;;;;2.67;1.85;;;;;;;16.98;63.33;99820.72;1997947;87;21366;-85
2022/06/21 06:52:13;;;;;;;5.65;1.90;;;;;;;16.64;63.45;99823.25;1991124;87;21031;-86
2022/06/21 06:55:35;;;;;;;3.20;1.75;;;;;;;16.70;63.23;99821.58;2000024;87;21028;-86
2022/06/21 06:58:48;;;;;;;5.35;2.33;;;;;;;16.56;63.29;99823.49;1989850;86;21154;-88
2022/06/21 07:02:03;;;;;;;5.87;1.62;;;;;;;16.42;62.97;99820.57;1994264;87;21105;-85
2022/06/21 07:05:23;;;;;;;6.62;1.70;;;;;;;16.27;62.53;99828.84;1979635;87;21073;-87
2022/06/21 07:08:53;;;;;;;2.70;1.57;;;;;;;16.32;62.32;99828.51;1994865;86;21075;-85
2022/06/21 07:12:15;;;;;;;3.25;1.52;;;;;;;16.32;62.80;99841.08;1999376;86;21140;-88
2022/06/21 07:15:22;;;;;;;4.85;1.98;;;;;;;16.18;63.52;99840.30;1992675;87;21621;-85
2022/06/21 07:18:30;;;;;;;6.70;2.37;;;;;;;15.91;62.86;99847.57;1995718;87;21152;-88
2022/06/21 07:21:33;;;;;;;4.05;2.05;;;;;;;15.60;63.29;99857.02;1992884;87;21098;-86
2022/06/21 07:24:35;;;;;;;2.67;1.62;;;;;;;15.44;63.65;99852.08;1997569;87;22297;-86
2022/06/21 07:27:39;;;;;;;4.78;2.00;;;;;;;15.34;63.74;99859.14;2000632;86;21555;-86
2022/06/21 07:30:45;;;;;;;5.10;2.02;;;;;;;15.17;63.70;99850.69;2019127;87;21031;-85
2022/06/21 07:34:20;;;;;;;3.55;2.08;;;;;;;15.05;63.98;99864.34;2025746;86;20999;-85
2022/06/21 07:37:34;;;;;;;5.55;2.42;;;;;;;15.01;64.64;99858.59;2017997;87;21057;-86
2022/06/21 07:40:58;;;;;;;3.95;2.10;;;;;;;15.07;64.76;99865.50;2020081;86;20969;-85
2022/06/21 07:44:09;;;;;;;7.30;2.77;;;;;;;15.40;65.03;99863.70;2026385;86;21029;-84
2022/06/21 07:47:21;;;;;;;4.65;1.98;;;;;;;15.58;64.64;99863.08;2000216;86;21022;-86
2022/06/21 07:50:39;;;;;;;7.40;2.02;;;;;;;15.86;64.39;99864.76;2027678;87;21101;-85
2022/06/21 07:53:51;;;;;;;3.55;2.20;;;;;;;15.67;63.74;99873.88;2018276;86;21072;-86
2022/06/21 07:57:09;;;;;;;5.37;2.40;;;;;;;15.49;64.04;99877.69;2023663;86;21568;-83
2022/06/21 09:58:25;;;;;;;2.22;1.30;;;;;;;20.06;48.72;99906.97;2066805;84;21149;-85
2022/06/21 10:01:44;;;;;;;1.87;1.10;;;;;;;20.31;47.92;99877.91;2073506;84;21076;-86
2022/06/21 10:05:25;;;;;;;4.60;1.40;;;;;;;20.38;47.29;99889.89;2071621;84;20982;-86
2022/06/21 10:08:38;;;;;;;2.40;1.10;;;;;;;20.31;48.29;99879.78;2071943;84;21002;-87
2022/06/21 10:12:18;;;;;;;5.17;1.62;;;;;;;20.28;47.98;99885.12;2070691;84;21069;-84
2022/06/21 10:15:35;;;;;;;;;;;;;;;20.03;48.10;99879.16;2074028;84;20974;-85
2022/06/21 10:19:35;;;;;;;5.97;1.37;;;;;;;20.24;47.82;99883.94;2069039;84;20434;-84
2022/06/21 10:23:25;;;;;;;3.65;1.35;;;;;;;20.08;48.43;99890.88;2073012;84;21038;-85
2022/06/21 10:26:57;;;;;;;6.97;1.22;;;;;;;19.85;49.12;99888.16;2074343;84;21622;-85
2022/06/21 10:30:20;;;;;;;5.85;1.35;;;;;;;19.54;47.81;99883.38;2069309;84;20982;-83
2022/06/21 10:34:01;;;;;;;5.78;1.45;;;;;;;19.52;47.94;99887.34;2045482;84;21037;-83
2022/06/21 10:37:34;;;;;;;5.67;1.20;;;;;;;19.25;47.12;99890.41;2068354;84;21081;-83
2022/06/21 10:41:14;;;;;;;1.57;1.07;;;;;;;19.19;47.45;99873.32;2065340;84;21520;-83
2022/06/21 10:44:34;;;;;;;1.82;1.20;;;;;;;19.45;48.54;99879.35;2072765;84;21009;-83
2022/06/21 10:47:59;;;;;;;;;;;;;;;19.87;48.51;99883.36;2070154;84;21055;-84
2022/06/21 10:51:31;;;;;;;2.85;1.37;;;;;;;20.17;47.36;99877.05;2033019;86;20149;-84
2022/06/21 10:55:01;;;;;;;2.43;1.30;;;;;;;20.32;47.00;99882.77;2035391;86;20993;-84
2022/06/21 10:58:25;;;;;;;5.85;1.50;;;;;;;20.22;47.09;99902.77;2023467;86;21145;-83
2022/06/21 11:01:47;;;;;;;2.58;1.10;;;;;;;20.03;47.42;99894.79;2028152;86;21116;-83
2022/06/21 11:05:09;;;;;;;1.85;1.12;;;;;;;19.84;47.12;99894.60;2028576;86;20991;-84
2022/06/21 11:08:54;;;;;;;2.83;1.37;;;;;;;19.80;47.47;99905.02;2029568;86;21089;-84
2022/06/21 11:15:53;;;;;;;2.12;0.98;;;;;;;19.32;47.36;99910.52;2028293;86;21491;-82
2022/06/21 11:19:11;;;;;;;5.00;1.40;;;;;;;19.06;47.72;99913.83;2029842;86;21492;-87
2022/06/21 11:22:48;;;;;;;4.55;1.55;;;;;;;19.04;48.55;99910.58;2029184;86;21086;-85
2022/06/21 11:26:04;;;;;;;5.87;1.37;;;;;;;19.47;49.08;99911.70;2028897;86;21022;-83
2022/06/21 11:29:32;;;;;;;1.30;1.20;;;;;;;19.57;47.68;99925.12;2030088;86;21078;-84
2022/06/21 11:32:45;;;;;;;1.82;1.05;;;;;;;19.35;47.83;99916.77;2030424;86;21069;-83
2022/06/21 11:36:07;;;;;;;8.88;1.62;;;;;;;19.08;47.76;99918.47;2019245;86;21553;-82
2022/06/21 11:39:29;;;;;;;2.65;1.72;;;;;;;19.20;49.05;99921.20;2029250;86;20987;-82
2022/06/21 11:42:36;;;;;;;3.15;1.40;;;;;;;19.42;49.03;99926.90;2029418;86;21838;-84
2022/06/21 11:45:54;;;;;;;3.55;1.90;;;;;;;19.83;48.75;99910.47;2032963;86;21097;-84
2022/06/21 11:49:33;;;;;;;1.70;1.22;;;;;;;19.93;49.19;99912.89;2029079;86;21103;-85
2022/06/21 11:53:07;;;;;;;2.77;1.65;;;;;;;20.10;48.84;99910.31;2029905;86;21537;-83
2022/06/21 11:56:24;;;;;;;2.72;1.62;;;;;;;20.18;48.73;99908.31;2030115;86;21557;-82
2022/06/21 11:59:39;;;;;;;2.40;1.30;;;;;;;20.25;49.18;99911.19;2025190;86;21490;-83
2022/06/21 12:03:02;;;;;;;3.25;1.57;;;;;;;20.13;48.80;99916.58;2027929;86;21020;-82
2022/06/21 12:06:17;;;;;;;4.22;1.50;;;;;;;19.82;48.27;99908.81;2028892;86;21037;-83
2022/06/21 12:09:47;;;;;;;2.40;1.30;;;;;;;19.57;48.74;99912.51;2017980;86;21002;-83
2022/06/21 12:13:06;;;;;;;3.50;1.77;;;;;;;19.73;49.71;99906.17;2028277;86;20983;-84
2022/06/21 12:16:32;;;;;;;3.37;1.50;;;;;;;19.93;49.86;99910.20;2028461;86;21163;-83
2022/06/21 12:19:41;;;;;;;2.10;1.45;;;;;;;20.25;49.40;99917.11;2012076;85;21623;-83
2022/06/21 12:22:46;;;;;;;3.00;1.45;;;;;;;20.30;48.65;99923.43;2027781;86;21034;-81
2022/06/21 12:25:48;;;;;;;3.77;1.32;;;;;;;20.34;49.03;99927.81;2023792;87;21046;-80
2022/06/21 12:28:52;;;;;;;2.92;1.70;;;;;;;20.34;49.12;99917.84;2027361;86;21041;-81
2022/06/21 12:32:01;;;;;;;1.92;1.20;;;;;;;20.62;49.08;99914.16;2028188;86;21605;-82
2022/06/21 12:35:15;;;;;;;1.35;1.12;;;;;;;20.86;48.75;99913.02;2025173;87;21030;-84
2022/06/21 12:38:24;;;;;;;3.45;1.72;;;;;;;21.22;48.47;99920.45;2024720;86;21020;-84
2022/06/21 12:42:05;;;;;;;2.70;1.30;;;;;;;21.45;47.42;99915.50;2025289;86;21074;-84
2022/06/21 12:50:50;;;;;;;4.40;2.17;;;;;;;21.69;46.18;99910.26;1978006;86;21363;-83
2022/06/21 12:54:37;;;;;;;2.00;1.60;;;;;;;21.19;46.94;99909.62;1965868;89;21082;-84
2022/06/21 12:58:06;;;;;;;;;;;;;;;;;;;;;
2022/06/21 13:11:14;;;;;;;;;;;;;;;;;;;;;
2022/06/21 13:14:57;;;;;;;2.23;1.90;;;;;;;20.61;47.31;99902.56;1832478;93;21797;-82
2022/06/21 13:18:46;;;;;;;1.62;1.50;;;;;;;20.38;47.85;99908.25;1882458;89;21265;-80
2022/06/21 13:30:30;;;;;;;;;;;;;;;;;;;;;
2022/06/21 13:34:04;;;;;;;;;;;;;;;;;;;;;
2022/06/21 13:38:00;;;;;;;;;;;;;;;;;;;;;
2022/06/21 13:46:38;;;;;;;;;;;;;;;;;;;;;
2022/06/21 13:50:08;;;;;;;2.15;1.52;;;;;;;20.41;47.91;99878.64;1652073;105;21224;-84
2022/06/21 13:54:01;;;;;;;2.80;1.45;;;;;;;20.53;47.83;99892.96;1633775;106;21301;-82
2022/06/21 13:57:41;;;;;;;2.35;1.80;;;;;;;20.31;47.25;99886.52;1680292;101;21255;-82
2022/06/21 14:13:39;;;;;;;2.37;1.60;;;;;;;20.26;48.36;99870.24;1773810;90;21121;-83
2022/06/21 14:17:03;;;;;;;4.75;1.42;;;;;;;20.39;47.68;99872.69;1987830;85;21005;-83
2022/06/21 14:20:31;;;;;;;3.95;1.57;;;;;;;20.33;48.25;99870.95;2048154;85;21074;-83
2022/06/21 14:23:38;;;;;;;2.80;2.00;;;;;;;20.30;48.73;99868.70;2049374;85;21018;-83
2022/06/21 14:26:51;;;;;;;2.55;1.82;;;;;;;20.54;48.71;99870.33;2048277;85;21651;-84
2022/06/21 14:30:06;;;;;;;3.70;2.00;;;;;;;20.68;48.61;99877.63;2053668;85;21012;-82
2022/06/21 14:33:32;;;;;;;3.50;1.50;;;;;;;20.76;48.12;99879.13;2046903;85;21038;-83
2022/06/21 14:36:53;;;;;;;3.02;1.70;;;;;;;20.88;47.78;99866.95;2054836;85;21071;-83
2022/06/21 14:40:05;;;;;;;3.62;1.82;;;;;;;20.97;47.98;99859.57;2051923;85;21014;-84
2022/06/21 14:43:36;;;;;;;3.70;1.45;;;;;;;21.03;47.33;99855.09;2048588;85;21594;-82
2022/06/21 14:46:59;;;;;;;4.08;1.80;;;;;;;21.03;47.30;99853.23;2052041;85;21081;-82
2022/06/21 14:50:19;;;;;;;2.83;1.57;;;;;;;21.11;47.57;99856.05;2047098;85;21076;-84
2022/06/21 14:53:36;;;;;;;1.60;1.10;;;;;;;21.24;47.47;99857.10;2043465;85;21039;-84
2022/06/21 14:56:55;;;;;;;4.92;1.55;;;;;;;21.28;46.71;99853.38;2052257;85;21123;-83
2022/06/21 15:00:42;;;;;;;5.90;3.12;;;;;;;21.28;46.83;99853.38;2037884;85;21583;-82
2022/06/21 15:03:52;;;;;;;9.25;5.78;;;;;;;21.38;46.68;99848.20;2033259;86;21038;-85
2022/06/21 15:07:24;;;;;;;6.53;3.00;;;;;;;21.40;46.31;99847.43;2028126;86;20991;-85
2022/06/21 15:10:36;;;;;;;2.58;1.85;;;;;;;21.29;46.59;99844.23;2023310;86;21554;-83
2022/06/21 15:14:01;;;;;;;2.80;2.22;;;;;;;21.18;45.78;99842.43;2033678;85;21065;-83
2022/06/21 15:17:26;;;;;;;3.15;1.40;;;;;;;21.03;45.60;99834.36;2031706;86;21037;-83
2022/06/21 15:20:36;;;;;;;4.55;1.62;;;;;;;20.92;45.09;99833.88;2036333;86;21053;-83
2022/06/21 15:24:04;;;;;;;4.42;1.67;;;;;;;20.87;45.79;99835.66;2034001;86;21029;-84
2022/06/21 15:27:13;;;;;;;4.22;1.98;;;;;;;20.77;45.47;99831.70;2041323;86;21097;-83
2022/06/21 15:30:17;;;;;;;4.08;1.95;;;;;;;20.63;46.13;99839.78;2032974;85;21050;-83
2022/06/21 15:33:58;;;;;;;5.85;2.17;;;;;;;20.49;46.37;99832.46;2033269;86;21047;-85
2022/06/21 15:37:07;;;;;;;4.90;1.80;;;;;;;20.43;46.50;99834.77;2033052;85;21090;-83
2022/06/21 15:40:27;;;;;;;1.75;1.40;;;;;;;20.42;47.03;99836.38;2040155;86;21098;-85
2022/06/21 15:43:39;;;;;;;3.58;1.52;;;;;;;20.38;46.75;99832.80;2031805;86;21613;-83
2022/06/21 15:50:12;;;;;;;3.75;1.75;;;;;;;20.45;47.19;99838.59;2030199;85;21480;-83
2022/06/21 15:53:45;;;;;;;1.75;1.30;;;;;;;20.51;46.68;99826.31;2039533;85;21015;-82
2022/06/21 15:57:15;;;;;;;6.75;1.95;;;;;;;20.55;46.29;99831.56;2035851;85;21017;-82
2022/06/21 16:00:47;;;;;;;1.62;1.42;;;;;;;20.58;46.03;99818.11;2095819;83;21053;-84
2022/06/21 16:04:36;;;;;;;2.55;1.62;;;;;;;20.62;45.86;99815.78;2084808;83;21008;-84
2022/06/21 16:08:01;;;;;;;3.90;1.30;;;;;;;20.67;45.66;99812.65;2106331;83;21034;-82
2022/06/21 16:11:13;;;;;;;2.92;1.40;;;;;;;20.66;45.97;99815.57;2107606;83;20999;-83
2022/06/21 16:14:23;;;;;;;3.02;1.52;;;;;;;20.67;46.37;99815.88;2100525;83;21088;-82
2022/06/21 16:17:29;;;;;;;3.42;1.42;;;;;;;20.58;46.22;99819.45;2104313;83;21032;-82
2022/06/21 16:20:45;;;;;;;2.45;1.80;;;;;;;20.45;45.61;99816.50;2100107;84;21010;-83
2022/06/21 16:23:57;;;;;;;2.67;1.30;;;;;;;20.36;45.77;99818.75;2104137;83;21533;-83
2022/06/21 16:27:09;;;;;;;2.70;1.40;;;;;;;20.36;45.84;99824.13;2109418;83;21536;-81
2022/06/21 16:30:18;;;;;;;2.80;1.70;;;;;;;20.41;45.95;99823.41;2103087;83;21001;-83
2022/06/21 16:33:28;;;;;;;4.95;1.35;;;;;;;20.42;45.72;99822.90;2106052;83;20966;-82
2022/06/21 16:36:50;;;;;;;4.17;1.37;;;;;;;20.49;46.13;99823.56;2105270;83;21037;-82
2022/06/21 16:40:09;;;;;;;3.45;1.30;;;;;;;20.57;45.59;99831.31;2105817;83;21048;-82
2022/06/21 16:43:16;;;;;;;1.75;1.27;;;;;;;20.57;45.55;99817.30;2102631;83;21074;-82
2022/06/21 16:46:35;;;;;;;2.27;1.50;;;;;;;20.58;44.80;99815.41;2110230;83;20982;-82
2022/06/21 16:49:56;;;;;;;4.50;1.60;;;;;;;20.58;45.33;99816.77;2102258;83;21029;-84
2022/06/21 16:53:26;;;;;;;2.37;1.70;;;;;;;20.57;45.15;99813.79;2098707;83;21108;-81
2022/06/21 16:56:33;;;;;;;5.57;2.37;;;;;;;20.55;45.66;99819.44;2096697;83;20950;-82
2022/06/21 16:59:45;;;;;;;2.45;1.72;;;;;;;20.52;45.49;99816.34;2068111;83;21062;-85
2022/06/21 17:02:49;;;;;;;5.15;2.75;;;;;;;20.48;45.45;99810.63;2043151;85;21022;-84
2022/06/21 17:05:53;;;;;;;1.60;1.35;;;;;;;20.42;45.64;99815.63;2030613;85;21765;-84
2022/06/21 17:09:17;;;;;;;2.98;1.75;;;;;;;20.29;44.41;99811.84;2030024;86;21030;-84
2022/06/21 17:12:23;;;;;;;1.32;1.22;;;;;;;20.15;45.05;99814.79;2034973;86;21046;-86
2022/06/21 17:15:37;;;;;;;2.83;1.77;;;;;;;20.04;45.38;99811.59;2031682;85;21003;-84
2022/06/21 17:18:46;;;;;;;1.45;1.30;;;;;;;19.97;45.45;99811.44;2030309;86;21528;-82
2022/06/21 17:21:55;;;;;;;;;;;;;;;19.96;45.54;99803.87;2036646;85;21001;-83
2022/06/21 17:25:00;;;;;;;3.75;2.72;;;;;;;19.92;45.98;99804.06;1993455;87;20196;-85
2022/06/21 17:28:13;;;;;;;3.60;2.75;;;;;;;19.84;46.00;99798.50;1975894;88;21013;-84
2022/06/21 17:31:25;;;;;;;4.45;2.20;;;;;;;19.79;46.31;99798.91;1975081;88;21578;-81
2022/06/21 17:34:53;;;;;;;2.58;1.40;;;;;;;19.75;46.66;99793.72;1976081;88;21645;-82
2022/06/21 17:38:15;;;;;;;3.10;1.57;;;;;;;19.78;46.86;99790.55;1973324;89;21106;-83
2022/06/21 17:41:50;;;;;;;3.72;1.60;;;;;;;19.78;47.30;99799.98;1991773;87;21054;-81
2022/06/21 17:45:04;;;;;;;3.90;1.80;;;;;;;19.79;47.42;99794.87;1974971;88;21039;-81
2022/06/21 17:48:21;;;;;;;3.35;2.00;;;;;;;19.80;47.55;99792.50;1969482;89;21026;-83
2022/06/21 17:51:27;;;;;;;3.35;1.60;;;;;;;19.77;47.58;99799.70;1957758;89;21124;-82
2022/06/21 17:54:46;;;;;;;3.65;1.95;;;;;;;19.75;47.85;99795.06;1973734;89;21016;-84
2022/06/21 17:58:08;;;;;;;4.00;2.22;;;;;;;19.70;48.00;99800.61;1991132;88;21010;-84
2022/06/21 18:01:21;;;;;;;2.65;1.92;;;;;;;19.66;47.98;99799.98;2028904;86;21665;-85
2022/06/21 18:04:52;;;;;;;7.05;2.20;;;;;;;19.60;48.35;99804.39;2030523;86;21031;-84
2022/06/21 18:08:16;;;;;;;8.73;2.17;;;;;;;19.52;48.62;99798.02;2037831;85;21509;-84
2022/06/21 18:11:52;;;;;;;3.17;2.40;;;;;;;19.45;48.79;99802.14;2017436;87;21537;-86
2022/06/21 18:14:55;;;;;;;5.42;2.37;;;;;;;19.37;49.01;99804.36;2048271;85;21006;-87
2022/06/21 18:18:23;;;;;;;6.50;2.47;;;;;;;19.33;49.51;99808.58;2047133;85;21069;-84
2022/06/21 18:21:49;;;;;;;4.77;2.30;;;;;;;19.28;49.51;99813.82;2030934;86;22106;-84